Terminal Aerodrome Forecast
Issued by NWS Wichita, KS

Home | Current Version | Previous Version | Graphics & Text | Print | Product List | Glossary On
Versions: 1 2 3 4 5 6 7 8 9 10 11 12 13 14 15 16 17 18 19 20 21 22 23 24 25 26
981
FTUS43 KICT 182338
TAFICT
TAF
KICT 182338Z 1900/1924 15008KT P6SM SCT090
     FM190200 16007KT P6SM BKN050
     FM190500 16007KT 5SM BR SCT025
     FM190800 16007KT 3SM BR OVC015
     FM191000 16005KT 1SM BR OVC004
     FM191700 16007KT 3SM BR OVC007
     FM191900 16008KT P6SM SCT015=

USA.gov is the U.S. government's official web portal to all federal, state and local government web resources and services.